Time;durP1;ratioP1;P1;durP2;ratioP2;P2;SDS_P1;SDS_P2;PMS_P1;PMS_P2;Temp;Humidity;BMP_temperature;BMP_pressure;BME280_temperature;BME280_humidity;BME280_pressure;Samples;Min_cycle;Max_cycle;Signal;HPM_P1;HPM_P2
2022/09/16 00:00:50;;;;;;;;;;;15.10;99.90;;;;;;5071290;28;20359;-86
2022/09/16 00:03:16;;;;;;;;;;;15.10;99.90;;;;;;5071161;28;19912;-86
2022/09/16 00:05:43;;;;;;;;;;;15.10;99.90;;;;;;5070791;28;20043;-87
2022/09/16 00:08:08;;;;;;;;;;;15.10;99.90;;;;;;5071069;28;20062;-86
2022/09/16 00:10:36;;;;;;;;;;;15.10;99.90;;;;;;5071036;28;19967;-87
2022/09/16 00:13:02;;;;;;;;;;;15.20;99.90;;;;;;5072200;28;19915;-87
2022/09/16 00:15:28;;;;;;;;;;;15.10;99.90;;;;;;5070688;28;19916;-87
2022/09/16 00:17:54;;;;;;;;;;;15.20;99.90;;;;;;5070611;28;19914;-86
2022/09/16 00:20:19;;;;;;;;;;;15.20;99.90;;;;;;5070962;28;20359;-87
2022/09/16 00:22:44;;;;;;;;;;;15.20;99.90;;;;;;5070824;28;19935;-86
2022/09/16 00:25:10;;;;;;;;;;;15.20;99.90;;;;;;5070752;28;19987;-86
2022/09/16 00:27:36;;;;;;;;;;;15.20;99.90;;;;;;5073321;28;19912;-87
2022/09/16 00:30:02;;;;;;;;;;;15.30;99.90;;;;;;5074358;28;20000;-87
2022/09/16 00:32:28;;;;;;;;;;;15.30;99.90;;;;;;5074214;28;19909;-87
2022/09/16 00:34:53;;;;;;;;;;;15.30;99.90;;;;;;5074177;28;19923;-86
2022/09/16 00:37:19;;;;;;;;;;;15.30;99.90;;;;;;5074910;28;19912;-87
2022/09/16 00:39:46;;;;;;;;;;;15.30;99.90;;;;;;5074329;28;19954;-86
2022/09/16 00:42:12;;;;;;;;;;;15.30;99.90;;;;;;5074132;28;19908;-87
2022/09/16 00:44:53;;;;;;;;;;;15.20;99.90;;;;;;5073869;28;20391;-87
2022/09/16 00:47:27;;;;;;;;;;;15.20;99.90;;;;;;5073483;28;19908;-86
2022/09/16 00:49:55;;;;;;;;;;;15.20;99.90;;;;;;5075319;28;19909;-86
2022/09/16 00:52:21;;;;;;;;;;;15.20;99.90;;;;;;5073956;28;19916;-87
2022/09/16 00:54:46;;;;;;;;;;;15.10;99.90;;;;;;5073743;28;19909;-86
2022/09/16 00:57:12;;;;;;;;;;;15.10;99.90;;;;;;5073358;28;19915;-87
2022/09/16 00:59:40;;;;;;;;;;;15.10;99.90;;;;;;5073890;28;19908;-86
2022/09/16 01:02:08;;;;;;;;;;;15.10;99.90;;;;;;5073726;28;19913;-86
2022/09/16 01:04:35;;;;;;;;;;;15.00;99.90;;;;;;5073710;28;19955;-87
2022/09/16 01:07:00;;;;;;;;;;;15.00;99.90;;;;;;5074494;28;19908;-87
2022/09/16 01:09:28;;;;;;;;;;;15.10;99.90;;;;;;5073599;28;19969;-87
2022/09/16 01:11:53;;;;;;;;;;;15.00;99.90;;;;;;5073685;28;19948;-87
2022/09/16 01:17:10;;;;;;;;;;;15.00;99.90;;;;;;5074709;28;19919;-86
2022/09/16 01:19:54;;;;;;;;;;;15.00;99.90;;;;;;5073500;28;19974;-86
2022/09/16 01:22:27;;;;;;;;;;;15.00;99.90;;;;;;5073461;28;20045;-86
2022/09/16 01:24:58;;;;;;;;;;;15.00;99.90;;;;;;5073442;28;20368;-86
2022/09/16 01:27:24;;;;;;;;;;;15.00;99.90;;;;;;5073249;28;19971;-86
2022/09/16 01:29:56;;;;;;;;;;;15.00;99.90;;;;;;5073459;28;20393;-85
2022/09/16 01:32:40;;;;;;;;;;;15.00;99.90;;;;;;5073215;28;19909;-86
2022/09/16 01:35:11;;;;;;;;;;;15.00;99.90;;;;;;5073104;28;20016;-86
2022/09/16 01:37:48;;;;;;;;;;;15.00;99.90;;;;;;5071804;28;20411;-86
2022/09/16 01:40:18;;;;;;;;;;;15.10;99.90;;;;;;5074633;28;19909;-87
2022/09/16 01:43:01;;;;;;;;;;;15.10;99.90;;;;;;5073023;28;19916;-87
2022/09/16 01:45:45;;;;;;;;;;;15.10;99.90;;;;;;5073099;28;20399;-86
2022/09/16 01:48:18;;;;;;;;;;;15.10;99.90;;;;;;5072830;28;20391;-86
2022/09/16 01:50:47;;;;;;;;;;;15.10;99.90;;;;;;5072849;28;19940;-87
2022/09/16 01:53:15;;;;;;;;;;;15.10;99.90;;;;;;5072915;28;20003;-86
2022/09/16 01:55:51;;;;;;;;;;;15.20;99.90;;;;;;5073380;28;19920;-87
2022/09/16 01:58:22;;;;;;;;;;;15.20;99.90;;;;;;5073973;28;19915;-86
2022/09/16 02:00:49;;;;;;;;;;;15.20;99.90;;;;;;5072814;28;19916;-87
2022/09/16 02:03:18;;;;;;;;;;;15.20;99.90;;;;;;5072585;28;20368;-86
2022/09/16 02:05:49;;;;;;;;;;;15.20;99.90;;;;;;5073588;28;19909;-86
2022/09/16 02:08:24;;;;;;;;;;;15.20;99.90;;;;;;5072617;28;19908;-86
2022/09/16 02:10:52;;;;;;;;;;;15.20;99.90;;;;;;5072763;28;19924;-87
2022/09/16 02:13:20;;;;;;;;;;;15.10;99.90;;;;;;5072720;28;20000;-86
2022/09/16 02:15:47;;;;;;;;;;;15.10;99.90;;;;;;5071889;28;20007;-87
2022/09/16 02:18:13;;;;;;;;;;;15.00;99.90;;;;;;5073696;28;19908;-86
2022/09/16 02:20:41;;;;;;;;;;;15.00;99.90;;;;;;5072596;28;19959;-87
2022/09/16 02:23:21;;;;;;;;;;;15.00;99.90;;;;;;5072424;28;20429;-86
2022/09/16 02:25:47;;;;;;;;;;;15.00;99.90;;;;;;5073207;28;19962;-87
2022/09/16 02:28:16;;;;;;;;;;;15.10;99.90;;;;;;5073663;28;19963;-87
2022/09/16 02:30:43;;;;;;;;;;;15.10;99.90;;;;;;5072314;28;19913;-86
2022/09/16 02:33:09;;;;;;;;;;;15.00;99.90;;;;;;5072151;28;19999;-87
2022/09/16 02:35:36;;;;;;;;;;;15.00;99.90;;;;;;5071752;28;20402;-87
2022/09/16 02:38:04;;;;;;;;;;;14.90;99.90;;;;;;5072074;28;19916;-87
2022/09/16 02:40:40;;;;;;;;;;;14.80;99.90;;;;;;5073291;28;19954;-87
2022/09/16 02:43:05;;;;;;;;;;;14.80;99.90;;;;;;5071892;28;19935;-87
2022/09/16 02:45:51;;;;;;;;;;;14.80;99.90;;;;;;5072916;28;19909;-87
2022/09/16 02:48:25;;;;;;;;;;;14.80;99.90;;;;;;5041109;28;19912;-87
2022/09/16 02:51:04;;;;;;;;;;;14.70;99.90;;;;;;5071512;28;20086;-86
2022/09/16 02:53:42;;;;;;;;;;;14.60;99.90;;;;;;5071652;28;19909;-86
2022/09/16 02:56:20;;;;;;;;;;;14.50;99.90;;;;;;5071028;28;19912;-86
2022/09/16 02:58:45;;;;;;;;;;;14.40;99.90;;;;;;5071890;28;19963;-87
2022/09/16 03:01:12;;;;;;;;;;;14.30;99.90;;;;;;5073916;28;20336;-87
2022/09/16 03:03:37;;;;;;;;;;;14.20;99.90;;;;;;5071788;28;19909;-86
2022/09/16 03:06:05;;;;;;;;;;;14.20;99.90;;;;;;5070926;28;19908;-86
2022/09/16 03:08:32;;;;;;;;;;;14.20;99.90;;;;;;5071641;28;20016;-86
2022/09/16 03:11:01;;;;;;;;;;;14.10;99.90;;;;;;5071664;28;19908;-86
2022/09/16 03:13:29;;;;;;;;;;;14.10;99.90;;;;;;5071454;28;19908;-86
2022/09/16 03:16:06;;;;;;;;;;;14.30;99.90;;;;;;5070896;28;19919;-86
2022/09/16 03:18:57;;;;;;;;;;;14.10;99.90;;;;;;5072664;28;19924;-86
2022/09/16 03:21:39;;;;;;;;;;;14.10;99.90;;;;;;5071773;28;19915;-87
2022/09/16 03:24:09;;;;;;;;;;;14.10;99.90;;;;;;5071882;28;19916;-87
2022/09/16 03:26:54;;;;;;;;;;;14.10;99.90;;;;;;5070899;28;20328;-87
2022/09/16 03:29:20;;;;;;;;;;;14.10;99.90;;;;;;5070949;28;19915;-86
2022/09/16 03:31:58;;;;;;;;;;;14.20;99.90;;;;;;5072769;28;19912;-86
2022/09/16 03:34:26;;;;;;;;;;;14.20;99.90;;;;;;5071447;28;19916;-87
2022/09/16 03:36:55;;;;;;;;;;;14.30;99.90;;;;;;5071875;28;20268;-86
2022/09/16 03:39:21;;;;;;;;;;;14.30;99.90;;;;;;5072421;28;19908;-86
2022/09/16 03:41:47;;;;;;;;;;;14.30;99.90;;;;;;5071408;28;19915;-86
2022/09/16 03:44:12;;;;;;;;;;;14.30;99.90;;;;;;5071248;28;19923;-87
2022/09/16 03:46:37;;;;;;;;;;;14.30;99.90;;;;;;5070348;28;20032;-87
2022/09/16 03:49:03;;;;;;;;;;;14.40;99.90;;;;;;5070944;28;19908;-86
2022/09/16 03:51:28;;;;;;;;;;;14.40;99.90;;;;;;5071061;28;19909;-86
2022/09/16 03:53:54;;;;;;;;;;;14.30;99.90;;;;;;5072065;28;20390;-87
2022/09/16 03:56:21;;;;;;;;;;;14.30;99.90;;;;;;5070381;28;19995;-86
2022/09/16 03:58:47;;;;;;;;;;;14.30;99.90;;;;;;5071115;28;20361;-86
2022/09/16 04:01:13;;;;;;;;;;;14.30;99.90;;;;;;5073397;28;19973;-87
2022/09/16 04:03:38;;;;;;;;;;;14.20;99.90;;;;;;5074716;28;19912;-87
2022/09/16 04:06:04;;;;;;;;;;;14.20;99.90;;;;;;5074093;28;19958;-86
2022/09/16 04:08:30;;;;;;;;;;;14.20;99.90;;;;;;5074643;28;19909;-87
2022/09/16 04:10:59;;;;;;;;;;;14.10;99.90;;;;;;5074538;28;20015;-86
2022/09/16 04:13:25;;;;;;;;;;;14.10;99.90;;;;;;5074573;28;19951;-85
2022/09/16 04:15:51;;;;;;;;;;;14.10;99.90;;;;;;5073789;28;19959;-87
2022/09/16 04:18:16;;;;;;;;;;;14.20;99.90;;;;;;5075733;28;19951;-86
2022/09/16 04:20:42;;;;;;;;;;;14.10;99.90;;;;;;5074497;28;20260;-86
2022/09/16 04:23:07;;;;;;;;;;;14.00;99.90;;;;;;5074378;28;19908;-85
2022/09/16 04:25:33;;;;;;;;;;;14.00;99.90;;;;;;5073929;28;20407;-85
2022/09/16 04:27:59;;;;;;;;;;;14.00;99.90;;;;;;5075422;28;19948;-86
2022/09/16 04:30:24;;;;;;;;;;;14.00;99.90;;;;;;5074166;28;20375;-86
2022/09/16 04:32:53;;;;;;;;;;;14.00;99.90;;;;;;5074267;28;20393;-86
2022/09/16 04:35:19;;;;;;;;;;;14.00;99.90;;;;;;5075286;28;20065;-86
2022/09/16 04:37:45;;;;;;;;;;;14.00;99.90;;;;;;5073451;28;19952;-86
2022/09/16 04:40:11;;;;;;;;;;;13.90;99.90;;;;;;5073947;28;19916;-86
2022/09/16 04:42:36;;;;;;;;;;;13.90;99.90;;;;;;5073849;28;19916;-86
2022/09/16 04:45:02;;;;;;;;;;;14.00;99.90;;;;;;5075123;28;19912;-86
2022/09/16 04:47:28;;;;;;;;;;;14.00;99.90;;;;;;5073495;28;20376;-87
2022/09/16 04:49:53;;;;;;;;;;;14.00;99.90;;;;;;5074000;28;19908;-86
2022/09/16 04:52:19;;;;;;;;;;;14.00;99.90;;;;;;5074168;28;19958;-85
2022/09/16 04:54:44;;;;;;;;;;;14.00;99.90;;;;;;5073533;28;19928;-86
2022/09/16 04:57:10;;;;;;;;;;;13.90;99.90;;;;;;5073076;28;20299;-86
2022/09/16 04:59:35;;;;;;;;;;;13.90;99.90;;;;;;5073689;28;19912;-86
2022/09/16 05:02:01;;;;;;;;;;;13.90;99.90;;;;;;5073805;28;19909;-86
2022/09/16 05:04:26;;;;;;;;;;;13.90;99.90;;;;;;5074808;28;19908;-86
2022/09/16 05:06:52;;;;;;;;;;;13.90;99.90;;;;;;5072904;28;19919;-87
2022/09/16 05:09:17;;;;;;;;;;;14.00;99.90;;;;;;5073722;28;19908;-87
2022/09/16 05:11:42;;;;;;;;;;;13.90;99.90;;;;;;5073512;28;20364;-86
2022/09/16 05:14:15;;;;;;;;;;;13.90;99.90;;;;;;5073433;28;19917;-86
2022/09/16 05:16:41;;;;;;;;;;;14.00;99.90;;;;;;5072750;28;19913;-86
2022/09/16 05:19:06;;;;;;;;;;;14.00;99.90;;;;;;5073827;28;19908;-86
2022/09/16 05:21:34;;;;;;;;;;;14.00;99.90;;;;;;5073485;28;19908;-86
2022/09/16 05:24:01;;;;;;;;;;;14.00;99.90;;;;;;5073252;28;19923;-86
2022/09/16 05:26:27;;;;;;;;;;;14.00;99.90;;;;;;5073766;28;19995;-87
2022/09/16 05:28:53;;;;;;;;;;;14.00;99.90;;;;;;5073231;28;20398;-87
2022/09/16 05:31:20;;;;;;;;;;;14.00;99.90;;;;;;5074486;28;19909;-86
2022/09/16 05:33:56;;;;;;;;;;;14.00;99.90;;;;;;5073037;28;19913;-86
2022/09/16 05:36:21;;;;;;;;;;;14.10;99.90;;;;;;5072286;28;19912;-86
2022/09/16 05:38:47;;;;;;;;;;;14.10;99.90;;;;;;5073036;28;19916;-85
2022/09/16 05:41:13;;;;;;;;;;;14.10;99.90;;;;;;5073053;28;20363;-86
2022/09/16 05:43:39;;;;;;;;;;;14.20;99.90;;;;;;5112914;22;20061;-85
2022/09/16 05:46:05;;;;;;;;;;;14.20;99.90;;;;;;5094606;28;19908;-86
2022/09/16 05:48:30;;;;;;;;;;;14.20;99.90;;;;;;5093510;28;19912;-85
2022/09/16 05:51:04;;;;;;;;;;;14.30;99.90;;;;;;5093498;28;19915;-85
2022/09/16 05:53:30;;;;;;;;;;;14.30;99.90;;;;;;5093293;28;19909;-85
2022/09/16 05:56:07;;;;;;;;;;;14.30;99.90;;;;;;5094277;28;19962;-85
2022/09/16 05:58:33;;;;;;;;;;;14.30;99.90;;;;;;5093387;28;19908;-87
2022/09/16 06:00:59;;;;;;;;;;;14.40;99.90;;;;;;5093295;28;20392;-86
2022/09/16 06:03:26;;;;;;;;;;;14.40;99.90;;;;;;5093186;28;19922;-85
2022/09/16 06:05:51;;;;;;;;;;;14.40;99.90;;;;;;5092782;28;19908;-85
2022/09/16 06:08:17;;;;;;;;;;;14.50;99.90;;;;;;5093181;28;19961;-86
2022/09/16 06:10:42;;;;;;;;;;;14.50;99.90;;;;;;5093191;28;19964;-88
2022/09/16 06:13:08;;;;;;;;;;;14.50;99.90;;;;;;5094215;28;19950;-86
2022/09/16 06:15:34;;;;;;;;;;;14.50;99.90;;;;;;5092550;28;20059;-89
2022/09/16 06:18:00;;;;;;;;;;;14.50;99.90;;;;;;5092716;28;19915;-85
2022/09/16 06:20:25;;;;;;;;;;;14.50;99.90;;;;;;5092829;28;19909;-85
2022/09/16 06:22:51;;;;;;;;;;;14.50;99.90;;;;;;5092886;28;20396;-87
2022/09/16 06:25:17;;;;;;;;;;;14.50;99.90;;;;;;5092193;28;19915;-86
2022/09/16 06:27:42;;;;;;;;;;;14.60;99.90;;;;;;5092495;28;19934;-86
2022/09/16 06:30:08;;;;;;;;;;;14.70;99.90;;;;;;5092689;28;19915;-85
2022/09/16 06:32:33;;;;;;;;;;;14.70;99.90;;;;;;5092202;28;19916;-85
2022/09/16 06:34:59;;;;;;;;;;;14.70;99.90;;;;;;5092506;28;19908;-86
2022/09/16 06:37:25;;;;;;;;;;;14.70;99.90;;;;;;5093606;28;19914;-86
2022/09/16 06:39:50;;;;;;;;;;;14.70;99.90;;;;;;5092599;28;19912;-86
2022/09/16 06:42:16;;;;;;;;;;;14.70;99.90;;;;;;5092659;28;19908;-85
2022/09/16 06:44:42;;;;;;;;;;;14.80;99.90;;;;;;5092284;28;19920;-86
2022/09/16 06:47:07;;;;;;;;;;;14.80;99.90;;;;;;5092162;28;20014;-87
2022/09/16 06:49:33;;;;;;;;;;;14.90;99.90;;;;;;5092403;28;19908;-86
2022/09/16 06:51:58;;;;;;;;;;;15.00;99.90;;;;;;5092344;28;20349;-86
2022/09/16 06:54:24;;;;;;;;;;;15.10;99.90;;;;;;5092225;28;20379;-87
2022/09/16 06:56:49;;;;;;;;;;;15.20;99.90;;;;;;5091932;28;20286;-86
2022/09/16 06:59:17;;;;;;;;;;;15.20;99.90;;;;;;5092177;28;19909;-87
2022/09/16 07:01:43;;;;;;;;;;;15.20;99.90;;;;;;5092245;28;19957;-86
2022/09/16 07:04:23;;;;;;;;;;;15.20;99.90;;;;;;5091998;28;19912;-87
2022/09/16 07:06:50;;;;;;;;;;;15.30;99.90;;;;;;5092031;28;20015;-88
2022/09/16 07:09:23;;;;;;;;;;;15.40;99.90;;;;;;5090394;28;20461;-86
2022/09/16 07:11:48;;;;;;;;;;;15.40;99.90;;;;;;5090602;28;19915;-86
2022/09/16 07:14:14;;;;;;;;;;;15.40;99.90;;;;;;5091703;28;19912;-86
2022/09/16 07:16:39;;;;;;;;;;;15.50;99.90;;;;;;5090864;28;19962;-86
2022/09/16 07:19:05;;;;;;;;;;;15.40;99.90;;;;;;5092845;28;19908;-87
2022/09/16 07:21:30;;;;;;;;;;;15.40;99.90;;;;;;5085571;28;19908;-86
2022/09/16 07:23:57;;;;;;;;;;;15.50;99.90;;;;;;5071784;28;19913;-86
2022/09/16 07:26:27;;;;;;;;;;;15.60;99.90;;;;;;5071200;28;19909;-86
2022/09/16 07:28:53;;;;;;;;;;;15.50;99.90;;;;;;5071788;28;19947;-85
2022/09/16 07:31:20;;;;;;;;;;;15.60;99.90;;;;;;5072443;28;19965;-86
2022/09/16 07:33:47;;;;;;;;;;;15.70;99.90;;;;;;5072083;28;19923;-88
2022/09/16 07:36:14;;;;;;;;;;;15.70;99.90;;;;;;5091787;28;19943;-84
2022/09/16 07:38:39;;;;;;;;;;;15.80;99.90;;;;;;5097803;28;19915;-84
2022/09/16 07:41:10;;;;;;;;;;;15.90;99.90;;;;;;5096662;28;19912;-85
2022/09/16 07:43:35;;;;;;;;;;;15.80;99.90;;;;;;5097615;28;20276;-85
2022/09/16 07:46:01;;;;;;;;;;;15.90;99.90;;;;;;5096709;28;19915;-86
2022/09/16 07:48:28;;;;;;;;;;;16.10;99.90;;;;;;5097291;28;19919;-86
2022/09/16 07:50:57;;;;;;;;;;;16.00;99.90;;;;;;5097159;28;19915;-85
2022/09/16 07:53:23;;;;;;;;;;;16.10;99.90;;;;;;5096323;28;19908;-84
2022/09/16 07:55:49;;;;;;;;;;;16.10;99.90;;;;;;5095775;28;19957;-85
2022/09/16 07:58:14;;;;;;;;;;;16.10;99.90;;;;;;5096872;28;20006;-84
2022/09/16 08:00:41;;;;;;;;;;;16.10;99.90;;;;;;5089343;28;19912;-85
2022/09/16 08:03:07;;;;;;;;;;;16.20;99.90;;;;;;5078480;28;20393;-85
2022/09/16 08:05:32;;;;;;;;;;;16.10;99.90;;;;;;5075430;28;19947;-85
2022/09/16 08:07:58;;;;;;;;;;;16.10;99.90;;;;;;5075730;28;20269;-83
2022/09/16 08:10:23;;;;;;;;;;;16.30;99.90;;;;;;5075057;28;19958;-84
2022/09/16 08:12:49;;;;;;;;;;;16.40;99.90;;;;;;5076199;28;19916;-84
2022/09/16 08:15:15;;;;;;;;;;;16.40;99.90;;;;;;5077740;28;19917;-84
2022/09/16 08:17:41;;;;;;;;;;;16.40;99.90;;;;;;5074511;28;20272;-84
2022/09/16 08:20:06;;;;;;;;;;;16.60;99.90;;;;;;5075307;28;19908;-82
2022/09/16 08:22:32;;;;;;;;;;;16.70;99.90;;;;;;5076311;28;19909;-83
2022/09/16 08:24:58;;;;;;;;;;;16.90;99.90;;;;;;5074333;28;20011;-83
2022/09/16 08:27:23;;;;;;;;;;;16.90;99.90;;;;;;5075259;28;20027;-83
2022/09/16 08:29:49;;;;;;;;;;;16.90;99.90;;;;;;5075982;28;19916;-85
2022/09/16 08:32:14;;;;;;;;;;;17.00;99.90;;;;;;5074926;28;19909;-84
2022/09/16 08:34:40;;;;;;;;;;;17.10;99.90;;;;;;5074913;28;19912;-85
2022/09/16 08:37:05;;;;;;;;;;;17.30;99.90;;;;;;5074565;28;19919;-85
2022/09/16 08:39:31;;;;;;;;;;;17.50;99.90;;;;;;5074865;28;19954;-84
2022/09/16 08:42:05;;;;;;;;;;;17.50;99.90;;;;;;5074613;28;19915;-85
2022/09/16 08:44:37;;;;;;;;;;;17.50;99.90;;;;;;5093040;28;19916;-86
2022/09/16 08:47:05;;;;;;;;;;;17.60;99.90;;;;;;5092907;28;19955;-86
2022/09/16 08:49:36;;;;;;;;;;;17.70;99.90;;;;;;5077732;28;19919;-85
2022/09/16 08:52:22;;;;;;;;;;;17.60;99.90;;;;;;5079901;28;19908;-85
2022/09/16 08:54:53;;;;;;;;;;;17.50;99.90;;;;;;5055883;28;20324;-86
2022/09/16 08:57:23;;;;;;;;;;;17.80;99.90;;;;;;5074330;28;20291;-86
2022/09/16 08:59:52;;;;;;;;;;;17.90;99.90;;;;;;5079067;28;19908;-86
2022/09/16 09:02:25;;;;;;;;;;;18.00;99.90;;;;;;5093766;28;20363;-85
2022/09/16 09:04:51;;;;;;;;;;;17.80;99.90;;;;;;5093385;28;20289;-83
2022/09/16 09:07:24;;;;;;;;;;;17.80;99.90;;;;;;5092706;28;19999;-85
2022/09/16 09:09:56;;;;;;;;;;;17.70;99.90;;;;;;5093639;28;20563;-83
2022/09/16 09:12:25;;;;;;;;;;;17.80;99.90;;;;;;5093351;28;19919;-83
2022/09/16 09:14:58;;;;;;;;;;;17.90;99.90;;;;;;5093290;28;19919;-84
2022/09/16 09:17:36;;;;;;;;;;;18.30;99.90;;;;;;5092828;28;19943;-83
2022/09/16 09:20:10;;;;;;;;;;;18.50;99.90;;;;;;5093384;28;19915;-85
2022/09/16 09:22:55;;;;;;;;;;;19.20;99.90;;;;;;5093567;28;19962;-85
2022/09/16 09:25:24;;;;;;;;;;;19.10;99.90;;;;;;5092764;28;19940;-85
2022/09/16 09:27:49;;;;;;;;;;;19.00;99.90;;;;;;5091371;28;19930;-86
2022/09/16 09:30:20;;;;;;;;;;;19.40;99.90;;;;;;5085022;28;19917;-87
2022/09/16 09:33:06;;;;;;;;;;;19.10;99.90;;;;;;5086422;28;19992;-88
2022/09/16 09:35:32;;;;;;;;;;;18.90;99.90;;;;;;5052136;28;20367;-88
2022/09/16 09:38:03;;;;;;;;;;;18.70;99.90;;;;;;5074825;28;19915;-87
2022/09/16 09:40:31;;;;;;;;;;;18.60;99.90;;;;;;5072877;28;19909;-85
2022/09/16 09:42:57;;;;;;;;;;;18.70;99.90;;;;;;5072722;28;20455;-87
2022/09/16 09:45:31;;;;;;;;;;;19.50;99.90;;;;;;5072864;28;19967;-90
2022/09/16 09:48:00;;;;;;;;;;;19.80;99.90;;;;;;5072574;28;20003;-86
2022/09/16 09:50:31;;;;;;;;;;;20.70;99.90;;;;;;5072738;28;19916;-87
2022/09/16 09:53:15;;;;;;;;;;;21.30;99.90;;;;;;5074082;28;19908;-88
2022/09/16 09:55:41;;;;;;;;;;;21.80;99.90;;;;;;5072065;28;19912;-88
2022/09/16 09:58:16;;;;;;;;;;;22.20;99.90;;;;;;5072514;28;19916;-88
2022/09/16 10:00:42;;;;;;;;;;;23.00;99.90;;;;;;5071929;28;19913;-86
2022/09/16 10:03:16;;;;;;;;;;;23.10;99.90;;;;;;5072484;28;19958;-87
2022/09/16 10:05:41;;;;;;;;;;;22.70;99.90;;;;;;5084351;28;20282;-87
2022/09/16 10:08:19;;;;;;;;;;;22.00;99.90;;;;;;5095599;28;19920;-86
2022/09/16 10:10:47;;;;;;;;;;;21.80;99.90;;;;;;5072247;28;19909;-88
2022/09/16 10:13:13;;;;;;;;;;;21.40;99.90;;;;;;5072454;28;19909;-86
2022/09/16 10:15:39;;;;;;;;;;;20.80;99.90;;;;;;5082231;28;20003;-86
2022/09/16 10:18:11;;;;;;;;;;;20.60;99.90;;;;;;5087947;28;19968;-87
2022/09/16 10:20:37;;;;;;;;;;;20.30;99.90;;;;;;5082124;28;19908;-85
2022/09/16 10:23:11;;;;;;;;;;;20.20;99.90;;;;;;5092234;28;19915;-86
2022/09/16 10:25:37;;;;;;;;;;;20.20;99.90;;;;;;5091871;28;20271;-86
2022/09/16 10:28:04;;;;;;;;;;;20.20;99.90;;;;;;5092273;28;19908;-85
2022/09/16 10:30:34;;;;;;;;;;;20.00;99.90;;;;;;5092180;28;20095;-86
2022/09/16 10:33:04;;;;;;;;;;;19.90;99.90;;;;;;5092114;28;19908;-86
2022/09/16 10:35:31;;;;;;;;;;;19.70;99.90;;;;;;5091547;28;19916;-85
2022/09/16 10:37:59;;;;;;;;;;;19.50;99.90;;;;;;5086558;28;19995;-85
2022/09/16 10:40:31;;;;;;;;;;;19.50;99.90;;;;;;5088534;28;19969;-87
2022/09/16 10:43:12;;;;;;;;;;;19.70;99.90;;;;;;5091919;28;20346;-86
2022/09/16 10:45:54;;;;;;;;;;;19.70;99.90;;;;;;5091224;28;19962;-88
2022/09/16 10:48:29;;;;;;;;;;;19.80;99.90;;;;;;5092990;28;20426;-87
2022/09/16 10:51:02;;;;;;;;;;;19.40;99.90;;;;;;5091655;28;20399;-85
2022/09/16 10:53:44;;;;;;;;;;;19.20;99.90;;;;;;5091484;28;19971;-87
2022/09/16 10:56:17;;;;;;;;;;;19.10;99.90;;;;;;5088352;28;20520;-89
2022/09/16 10:58:43;;;;;;;;;;;18.70;99.90;;;;;;5090190;28;20016;-87
2022/09/16 11:01:11;;;;;;;;;;;18.50;99.90;;;;;;5091115;28;19947;-89
2022/09/16 11:03:52;;;;;;;;;;;18.20;99.90;;;;;;5091823;28;19909;-87
2022/09/16 11:06:31;;;;;;;;;;;18.00;99.90;;;;;;5090701;28;19908;-87
2022/09/16 11:08:56;;;;;;;;;;;18.00;99.90;;;;;;5091706;28;20378;-85
2022/09/16 11:11:40;;;;;;;;;;;18.20;99.90;;;;;;5092009;28;19958;-86
2022/09/16 11:14:25;;;;;;;;;;;18.20;99.90;;;;;;5093450;28;19908;-84
2022/09/16 11:17:12;;;;;;;;;;;18.30;99.90;;;;;;5092326;28;19912;-85
2022/09/16 11:20:00;;;;;;;;;;;18.50;99.90;;;;;;5092459;28;19908;-85
2022/09/16 11:22:29;;;;;;;;;;;18.60;99.90;;;;;;5092435;28;19916;-84
2022/09/16 11:25:06;;;;;;;;;;;18.60;99.90;;;;;;5092991;28;19908;-83
2022/09/16 11:27:32;;;;;;;;;;;18.80;99.90;;;;;;5093355;28;19908;-86
2022/09/16 11:30:00;;;;;;;;;;;18.90;99.90;;;;;;5092833;28;19919;-87
2022/09/16 11:32:45;;;;;;;;;;;19.00;99.90;;;;;;5092396;28;19909;-86
2022/09/16 11:35:31;;;;;;;;;;;19.10;99.90;;;;;;5092482;28;19912;-85
2022/09/16 11:38:06;;;;;;;;;;;19.10;99.90;;;;;;5091949;28;19908;-86
2022/09/16 11:40:34;;;;;;;;;;;19.10;99.90;;;;;;5092646;28;19966;-87
2022/09/16 11:43:08;;;;;;;;;;;19.10;99.90;;;;;;5092380;28;20061;-86
2022/09/16 11:45:45;;;;;;;;;;;19.20;99.90;;;;;;5111130;28;20523;-86
2022/09/16 11:48:19;;;;;;;;;;;19.40;99.90;;;;;;5133336;28;19916;-86
2022/09/16 11:51:04;;;;;;;;;;;19.60;99.90;;;;;;5090456;28;19923;-86
2022/09/16 11:53:41;;;;;;;;;;;19.70;99.90;;;;;;5019661;28;20009;-87
2022/09/16 11:56:13;;;;;;;;;;;19.40;99.90;;;;;;4908826;28;19947;-86
2022/09/16 11:58:47;;;;;;;;;;;19.20;99.90;;;;;;4919567;29;19966;-86
2022/09/16 12:01:34;;;;;;;;;;;19.10;99.90;;;;;;4870618;29;20376;-85
2022/09/16 12:04:28;;;;;;;;;;;19.10;99.90;;;;;;4218981;29;15961590;-86
2022/09/16 12:07:02;;;;;;;;;;;19.10;99.90;;;;;;4433437;31;19978;-88
2022/09/16 12:10:00;;;;;;;;;;;19.30;99.90;;;;;;4443471;31;19933;-87
2022/09/16 12:12:30;;;;;;;;;;;19.60;99.90;;;;;;4397228;32;19955;-86
2022/09/16 12:14:58;;;;;;;;;;;19.30;99.90;;;;;;4405911;32;19980;-84
2022/09/16 12:17:24;;;;;;;;;;;;;;;;;;4405700;32;20023;-86
2022/09/16 12:19:50;;;;;;;;;;;;;;;;;;4406075;32;19988;-87
2022/09/16 12:22:19;;;;;;;;;;;16.50;99.90;;;;;;4406672;32;20016;-87
2022/09/16 12:24:47;;;;;;;;;;;16.20;99.90;;;;;;4409909;32;19928;-85
2022/09/16 12:27:16;;;;;;;;;;;15.60;99.90;;;;;;4408518;32;19921;-85
2022/09/16 12:29:42;;;;;;;;;;;15.30;99.90;;;;;;4408740;32;20395;-84
2022/09/16 12:32:07;;;;;;;;;;;14.90;99.90;;;;;;4407704;32;20004;-84
2022/09/16 12:34:38;;;;;;;;;;;14.60;99.90;;;;;;4408451;32;19963;-86
2022/09/16 12:37:21;;;;;;;;;;;14.50;99.90;;;;;;4407131;32;20415;-81
2022/09/16 12:39:47;;;;;;;;;;;14.40;99.90;;;;;;4394751;32;19976;-87
2022/09/16 12:42:16;;;;;;;;;;;14.50;99.90;;;;;;4393762;32;19926;-88
2022/09/16 12:44:48;;;;;;;;;;;14.60;99.90;;;;;;4393371;32;19928;-87
2022/09/16 12:47:34;;;;;;;;;;;14.80;99.90;;;;;;4394018;32;19922;-87
2022/09/16 12:50:02;;;;;;;;;;;15.10;99.90;;;;;;4393559;32;20262;-88
2022/09/16 12:52:46;;;;;;;;;;;15.40;99.90;;;;;;4393582;32;20473;-87
2022/09/16 12:55:27;;;;;;;;;;;15.40;99.90;;;;;;4393306;32;19921;-86
2022/09/16 12:58:10;;;;;;;;;;;15.50;99.90;;;;;;4392648;32;19925;-87
2022/09/16 13:01:02;;;;;;;;;;;15.60;99.90;;;;;;4393356;32;20049;-88
2022/09/16 13:03:35;;;;;;;;;;;15.80;99.90;;;;;;4037632;31;15730442;-88
2022/09/16 13:06:06;;;;;;;;;;;15.90;99.90;;;;;;4489192;31;19991;-87
2022/09/16 13:08:32;;;;;;;;;;;16.10;99.90;;;;;;4510353;31;19933;-87
2022/09/16 13:10:59;;;;;;;;;;;16.30;99.90;;;;;;4580823;31;20396;-87
2022/09/16 13:13:29;;;;;;;;;;;16.30;99.90;;;;;;4609813;31;19921;-87
2022/09/16 13:15:56;;;;;;;;;;;16.30;99.90;;;;;;4609202;31;19929;-88
2022/09/16 13:18:27;;;;;;;;;;;16.20;99.90;;;;;;4609374;31;20296;-88
2022/09/16 13:20:52;;;;;;;;;;;16.10;99.90;;;;;;4609682;31;20316;-88
2022/09/16 13:23:44;;;;;;;;;;;16.10;99.90;;;;;;4609642;31;20533;-87
2022/09/16 13:26:10;;;;;;;;;;;16.10;99.90;;;;;;4609012;31;19918;-88
2022/09/16 13:28:39;;;;;;;;;;;16.30;99.90;;;;;;4609614;31;19968;-87
2022/09/16 13:31:15;;;;;;;;;;;16.60;99.90;;;;;;4609662;31;20332;-88
2022/09/16 13:33:48;;;;;;;;;;;16.80;99.90;;;;;;4608407;31;20005;-88
2022/09/16 13:36:16;;;;;;;;;;;16.90;99.90;;;;;;4608750;31;19922;-88
2022/09/16 13:38:58;;;;;;;;;;;16.80;99.90;;;;;;4609334;31;20391;-89
2022/09/16 13:41:28;;;;;;;;;;;16.90;99.90;;;;;;4609319;31;19925;-88
2022/09/16 13:43:54;;;;;;;;;;;16.90;99.90;;;;;;4609338;31;19918;-89
2022/09/16 13:46:33;;;;;;;;;;;17.00;99.90;;;;;;4608997;31;19921;-88
2022/09/16 13:49:02;;;;;;;;;;;16.90;99.90;;;;;;4609343;31;19918;-88
2022/09/16 13:51:28;;;;;;;;;;;16.70;99.90;;;;;;4609322;31;19917;-87
2022/09/16 13:54:02;;;;;;;;;;;16.80;99.90;;;;;;4609070;31;19918;-87
2022/09/16 13:56:41;;;;;;;;;;;16.60;99.90;;;;;;4582011;31;19995;-88
2022/09/16 13:59:25;;;;;;;;;;;16.60;99.90;;;;;;4609121;31;19918;-87
2022/09/16 14:02:10;;;;;;;;;;;16.60;99.90;;;;;;4608989;31;19939;-89
2022/09/16 14:04:41;;;;;;;;;;;16.60;99.90;;;;;;4627341;30;20018;-87
2022/09/16 14:07:09;;;;;;;;;;;16.50;99.90;;;;;;4754261;29;19979;-88
2022/09/16 14:09:42;;;;;;;;;;;16.40;99.90;;;;;;4779416;29;19922;-88
2022/09/16 14:12:07;;;;;;;;;;;16.60;99.90;;;;;;4766657;30;20416;-88
2022/09/16 14:14:34;;;;;;;;;;;17.00;99.90;;;;;;4766639;30;19914;-88
2022/09/16 14:17:04;;;;;;;;;;;17.50;99.90;;;;;;4766262;29;19922;-88
2022/09/16 14:19:32;;;;;;;;;;;18.20;99.90;;;;;;4766612;29;20235;-88
2022/09/16 14:22:05;;;;;;;;;;;18.60;99.90;;;;;;4752827;30;20003;-88
2022/09/16 14:24:35;;;;;;;;;;;18.60;99.90;;;;;;4766219;29;19921;-87
2022/09/16 14:27:00;;;;;;;;;;;18.40;99.90;;;;;;4765752;29;19920;-86
2022/09/16 14:29:26;;;;;;;;;;;18.60;99.90;;;;;;4766422;29;19914;-88
2022/09/16 14:31:53;;;;;;;;;;;18.70;99.90;;;;;;4766051;29;19914;-87
2022/09/16 14:34:32;;;;;;;;;;;18.60;99.90;;;;;;4752930;30;20391;-88
2022/09/16 14:36:58;;;;;;;;;;;18.30;99.90;;;;;;4765484;29;19922;-88